createdAt,value
2023-03-16T00:00:32.921Z,23.70
2023-03-16T00:03:20.833Z,23.70
2023-03-16T00:05:51.669Z,23.70
2023-03-16T00:08:21.479Z,23.70
2023-03-16T00:10:50.357Z,23.60
2023-03-16T00:13:23.811Z,23.70
2023-03-16T00:15:54.103Z,23.60
2023-03-16T00:18:27.393Z,23.60
2023-03-16T00:21:02.236Z,23.60
2023-03-16T00:23:35.682Z,23.60
2023-03-16T00:26:07.774Z,23.50
2023-03-16T00:28:37.946Z,23.60
2023-03-16T00:31:11.907Z,23.50
2023-03-16T00:33:44.020Z,23.50
2023-03-16T00:36:13.761Z,23.40
2023-03-16T00:38:45.236Z,23.40
2023-03-16T00:41:16.732Z,23.40
2023-03-16T00:43:46.160Z,23.40
2023-03-16T00:46:18.502Z,23.40
2023-03-16T00:48:49.488Z,23.30
2023-03-16T00:51:19.904Z,23.30
2023-03-16T00:53:49.095Z,23.30
2023-03-16T00:56:18.698Z,23.30
2023-03-16T00:58:47.788Z,23.30
2023-03-16T01:01:21.915Z,23.30
2023-03-16T01:03:52.506Z,23.20
2023-03-16T01:06:22.281Z,23.20
2023-03-16T01:08:52.422Z,23.20
2023-03-16T01:11:23.809Z,23.20
2023-03-16T01:13:54.443Z,23.20
2023-03-16T01:16:24.298Z,23.20
2023-03-16T01:18:55.302Z,23.10
2023-03-16T01:21:25.265Z,23.10
2023-03-16T01:23:54.861Z,23.10
2023-03-16T01:26:25.345Z,23.10
2023-03-16T01:28:55.036Z,23.00
2023-03-16T01:31:24.748Z,23.00
2023-03-16T01:33:55.279Z,23.00
2023-03-16T01:36:28.004Z,23.00
2023-03-16T01:39:02.350Z,23.00
2023-03-16T01:41:37.085Z,22.90
2023-03-16T01:44:06.709Z,22.90
2023-03-16T01:46:35.933Z,22.90
2023-03-16T01:49:14.698Z,22.90
2023-03-16T01:51:51.678Z,22.90
2023-03-16T01:54:27.575Z,22.90
2023-03-16T01:57:07.403Z,22.90
2023-03-16T01:59:44.104Z,22.90
2023-03-16T02:02:16.686Z,22.90
2023-03-16T02:04:55.536Z,22.90
2023-03-16T02:07:28.718Z,22.90
2023-03-16T02:10:02.489Z,22.80
2023-03-16T02:12:31.967Z,22.80
2023-03-16T02:15:03.578Z,22.80
2023-03-16T02:17:35.738Z,22.80
2023-03-16T02:20:26.385Z,22.70
2023-03-16T02:22:56.359Z,22.70
2023-03-16T02:25:36.027Z,22.70
2023-03-16T02:28:16.483Z,22.70
2023-03-16T02:30:49.755Z,22.70
2023-03-16T02:33:21.356Z,22.70
2023-03-16T02:35:50.719Z,22.70
2023-03-16T02:38:19.573Z,22.70
2023-03-16T02:41:01.100Z,22.70
2023-03-16T02:43:35.954Z,22.70
2023-03-16T02:46:21.644Z,22.60
2023-03-16T02:49:03.081Z,22.60
2023-03-16T02:51:33.186Z,22.60
2023-03-16T02:54:02.422Z,22.60
2023-03-16T02:56:34.482Z,22.60
2023-03-16T02:59:03.306Z,22.60
2023-03-16T03:01:36.655Z,22.60
2023-03-16T03:04:07.048Z,22.60
2023-03-16T03:06:36.483Z,22.60
2023-03-16T03:09:07.070Z,22.60
2023-03-16T03:11:36.302Z,22.60
2023-03-16T03:14:05.900Z,22.60
2023-03-16T03:16:37.245Z,22.60
2023-03-16T03:19:06.237Z,22.60
2023-03-16T03:21:39.093Z,22.60
2023-03-16T03:24:10.105Z,22.60
2023-03-16T03:26:39.691Z,22.60
2023-03-16T03:29:14.098Z,22.50
2023-03-16T03:31:44.748Z,22.50
2023-03-16T03:34:15.618Z,22.50
2023-03-16T03:36:44.780Z,22.50
2023-03-16T03:39:13.631Z,22.50
2023-03-16T03:41:42.971Z,22.50
2023-03-16T03:44:13.356Z,22.50
2023-03-16T03:46:44.093Z,22.50
2023-03-16T03:49:13.328Z,22.40
2023-03-16T03:51:42.525Z,22.40
2023-03-16T03:54:18.697Z,22.50
2023-03-16T03:57:10.069Z,22.50
2023-03-16T03:59:43.754Z,22.50
2023-03-16T04:02:32.955Z,22.40
2023-03-16T04:05:02.154Z,22.40
2023-03-16T04:07:32.364Z,22.40
2023-03-16T04:10:08.381Z,22.40
2023-03-16T04:12:41.630Z,22.40
2023-03-16T04:15:13.672Z,22.40
2023-03-16T04:17:56.741Z,22.40
2023-03-16T04:20:27.623Z,22.40
2023-03-16T04:22:58.816Z,22.40
2023-03-16T04:25:30.605Z,22.40
2023-03-16T04:28:02.127Z,22.40
2023-03-16T04:30:35.164Z,22.40
2023-03-16T04:33:22.886Z,22.30
2023-03-16T04:35:52.332Z,22.30
2023-03-16T04:38:23.469Z,22.30
2023-03-16T04:40:57.167Z,22.30
2023-03-16T04:43:34.381Z,22.30
2023-03-16T04:46:10.275Z,22.30
2023-03-16T04:48:41.398Z,22.30
2023-03-16T04:51:11.264Z,22.20
2023-03-16T04:53:45.981Z,22.20
2023-03-16T04:56:23.919Z,22.20
2023-03-16T04:58:58.641Z,22.20
2023-03-16T05:01:31.685Z,22.20
2023-03-16T05:04:05.073Z,22.20
2023-03-16T05:06:36.778Z,22.20
2023-03-16T05:09:08.533Z,22.20
2023-03-16T05:11:40.639Z,22.20
2023-03-16T05:14:12.500Z,22.20
2023-03-16T05:17:04.754Z,22.20
2023-03-16T05:19:36.256Z,22.20
2023-03-16T05:22:05.258Z,22.20
2023-03-16T05:24:34.843Z,22.30
2023-03-16T05:27:04.296Z,22.30
2023-03-16T05:29:34.445Z,22.30
2023-03-16T05:32:03.813Z,22.30
2023-03-16T05:34:35.824Z,22.30
2023-03-16T05:37:05.135Z,22.30
2023-03-16T05:39:35.805Z,22.40
2023-03-16T05:42:05.882Z,22.30
2023-03-16T05:44:51.179Z,22.40
2023-03-16T05:47:49.373Z,22.40
2023-03-16T05:50:21.776Z,22.40
2023-03-16T05:52:50.712Z,22.40
2023-03-16T05:55:24.669Z,22.40
2023-03-16T05:57:58.692Z,22.50
2023-03-16T06:00:30.155Z,22.50
2023-03-16T06:03:13.167Z,22.50
2023-03-16T06:05:43.698Z,22.50
2023-03-16T06:08:13.332Z,22.60
2023-03-16T06:10:47.412Z,22.60
2023-03-16T06:13:17.925Z,22.60
2023-03-16T06:15:47.152Z,22.70
2023-03-16T06:18:17.044Z,22.70
2023-03-16T06:20:49.584Z,22.80
2023-03-16T06:23:20.356Z,22.80
2023-03-16T06:25:51.381Z,22.90
2023-03-16T06:28:24.312Z,22.90
2023-03-16T06:30:55.896Z,23.00
2023-03-16T06:33:27.666Z,23.00
2023-03-16T06:35:58.192Z,23.10
2023-03-16T06:38:35.409Z,23.20
2023-03-16T06:41:40.209Z,23.20
2023-03-16T06:44:09.404Z,23.30
2023-03-16T06:46:43.847Z,23.30
2023-03-16T06:49:13.312Z,23.40
2023-03-16T06:51:44.283Z,23.40
2023-03-16T06:54:13.626Z,23.50
2023-03-16T06:56:43.664Z,23.60
2023-03-16T06:59:13.226Z,23.60
2023-03-16T07:01:42.415Z,23.70
2023-03-16T07:04:12.717Z,23.70
2023-03-16T07:06:44.809Z,23.80
2023-03-16T07:09:14.968Z,23.90
2023-03-16T07:11:44.814Z,23.90
2023-03-16T07:14:13.679Z,24.00
2023-03-16T07:16:43.821Z,24.00
2023-03-16T07:19:12.846Z,24.10
2023-03-16T07:21:42.092Z,24.20
2023-03-16T07:24:17.564Z,24.30
2023-03-16T07:26:47.825Z,24.40
2023-03-16T07:29:25.592Z,24.50
2023-03-16T07:31:55.464Z,24.50
2023-03-16T07:34:30.193Z,24.60
2023-03-16T07:37:01.110Z,24.70
2023-03-16T07:39:34.343Z,24.70
2023-03-16T07:42:10.175Z,24.80
2023-03-16T07:44:51.786Z,24.80
2023-03-16T07:47:22.145Z,24.90
2023-03-16T07:49:53.493Z,25.00
2023-03-16T07:52:23.081Z,25.00
2023-03-16T07:54:55.257Z,25.10
2023-03-16T07:57:24.458Z,25.20
2023-03-16T07:59:53.297Z,25.30
2023-03-16T08:02:22.901Z,25.40
2023-03-16T08:04:52.654Z,25.50
2023-03-16T08:07:22.168Z,25.50
2023-03-16T08:10:15.386Z,25.60
2023-03-16T08:12:54.940Z,25.60
2023-03-16T08:15:25.006Z,25.70
2023-03-16T08:18:02.422Z,25.70
2023-03-16T08:20:32.353Z,25.70
2023-03-16T08:23:01.707Z,25.80
2023-03-16T08:25:39.494Z,25.80
2023-03-16T08:28:12.724Z,25.80
2023-03-16T08:30:48.180Z,25.90
2023-03-16T08:33:39.764Z,26.00
2023-03-16T08:36:15.474Z,26.10
2023-03-16T08:39:03.824Z,26.20
2023-03-16T08:41:38.207Z,26.30
2023-03-16T08:44:13.004Z,26.30
2023-03-16T08:46:42.595Z,26.50
2023-03-16T08:49:13.678Z,26.50
2023-03-16T08:51:44.947Z,26.60
2023-03-16T08:54:16.049Z,26.70
2023-03-16T08:56:46.299Z,26.70
2023-03-16T08:59:28.759Z,26.80
2023-03-16T09:01:58.854Z,26.90
2023-03-16T09:04:30.005Z,27.00
2023-03-16T09:07:08.330Z,27.00
2023-03-16T09:09:39.798Z,27.20
2023-03-16T09:12:10.554Z,27.20
2023-03-16T09:14:40.469Z,27.30
2023-03-16T09:17:11.760Z,27.40
2023-03-16T09:19:50.973Z,27.50
2023-03-16T09:22:20.681Z,27.70
2023-03-16T09:24:51.330Z,27.80
2023-03-16T09:27:22.502Z,27.90
2023-03-16T09:29:53.174Z,28.10
2023-03-16T09:32:22.074Z,28.10
2023-03-16T09:34:51.720Z,28.20
2023-03-16T09:37:20.567Z,28.30
2023-03-16T09:39:50.223Z,28.40
2023-03-16T09:42:31.255Z,28.50
2023-03-16T09:45:15.763Z,28.60
2023-03-16T09:47:48.936Z,28.70
2023-03-16T09:50:30.276Z,28.80
2023-03-16T09:53:18.756Z,28.80
2023-03-16T09:55:55.347Z,28.80
2023-03-16T09:58:27.225Z,28.80
2023-03-16T10:01:10.859Z,28.80
2023-03-16T10:04:03.500Z,28.90
2023-03-16T10:06:33.209Z,29.00
2023-03-16T10:09:22.948Z,29.00
2023-03-16T10:11:58.248Z,29.10
2023-03-16T10:14:38.605Z,29.20
2023-03-16T10:17:17.124Z,29.30
2023-03-16T10:19:53.969Z,29.40
2023-03-16T10:22:26.518Z,29.50
2023-03-16T10:25:09.389Z,29.70
2023-03-16T10:27:42.121Z,29.90
2023-03-16T10:30:24.917Z,30.00
2023-03-16T10:32:54.667Z,30.00
2023-03-16T10:35:46.060Z,30.10
2023-03-16T10:38:31.104Z,30.20
2023-03-16T10:41:02.186Z,30.20
2023-03-16T10:43:32.246Z,30.30
2023-03-16T10:46:03.312Z,30.20
2023-03-16T10:48:34.980Z,30.30
2023-03-16T10:51:10.198Z,30.20
2023-03-16T10:53:45.648Z,30.00
2023-03-16T10:56:23.873Z,29.80
2023-03-16T10:58:54.248Z,29.50
2023-03-16T11:01:29.389Z,29.30
2023-03-16T11:04:00.892Z,29.00
2023-03-16T11:06:32.654Z,28.80
2023-03-16T11:09:08.960Z,28.60
2023-03-16T11:11:38.259Z,28.40
2023-03-16T11:14:15.413Z,28.20
2023-03-16T11:16:53.378Z,28.10
2023-03-16T11:19:29.252Z,28.30
2023-03-16T11:22:05.203Z,28.60
2023-03-16T11:24:46.700Z,28.70
2023-03-16T11:27:25.212Z,28.70
2023-03-16T11:30:09.779Z,28.70
2023-03-16T11:32:46.386Z,28.60
2023-03-16T11:35:19.595Z,28.50
2023-03-16T11:38:06.482Z,28.30
2023-03-16T11:40:49.281Z,28.20
2023-03-16T11:43:49.368Z,28.10
2023-03-16T11:46:24.956Z,28.00
2023-03-16T11:49:42.195Z,27.90
2023-03-16T11:52:24.719Z,27.90
2023-03-16T11:55:07.881Z,27.80
2023-03-16T11:57:54.968Z,27.80
2023-03-16T12:00:35.643Z,27.70
2023-03-16T12:03:34.116Z,27.70
2023-03-16T12:06:23.789Z,27.70
2023-03-16T12:09:30.270Z,27.70
2023-03-16T12:12:12.916Z,27.70
2023-03-16T12:14:55.517Z,27.70
2023-03-16T12:17:30.522Z,27.60
2023-03-16T12:20:07.169Z,27.60
2023-03-16T12:22:45.207Z,27.60
2023-03-16T12:25:22.252Z,27.60
2023-03-16T12:27:55.914Z,27.50
2023-03-16T12:30:42.557Z,27.50
2023-03-16T12:33:23.771Z,27.40
2023-03-16T12:36:03.392Z,27.40
2023-03-16T12:38:48.712Z,27.40
2023-03-16T12:41:34.581Z,27.40
2023-03-16T12:44:17.445Z,27.30
2023-03-16T12:46:59.392Z,27.20
2023-03-16T12:49:34.279Z,27.20
2023-03-16T12:52:07.092Z,27.20
2023-03-16T12:54:38.066Z,27.20
2023-03-16T12:57:10.651Z,27.20
2023-03-16T12:59:43.582Z,27.20
2023-03-16T13:02:19.630Z,27.20
2023-03-16T13:04:59.046Z,27.20
2023-03-16T13:07:32.209Z,27.20
2023-03-16T13:10:08.919Z,27.10
2023-03-16T13:12:41.918Z,27.10
2023-03-16T13:15:29.824Z,27.10
2023-03-16T13:18:25.007Z,26.90
2023-03-16T13:21:01.747Z,27.00
2023-03-16T13:23:58.052Z,27.00
2023-03-16T13:26:42.193Z,26.90
2023-03-16T13:29:28.042Z,26.90
2023-03-16T13:32:00.272Z,27.00
2023-03-16T13:34:32.381Z,26.90
2023-03-16T13:37:02.667Z,27.00
2023-03-16T13:39:33.724Z,26.90
2023-03-16T13:42:17.915Z,26.90
2023-03-16T13:44:48.057Z,27.00
2023-03-16T13:47:20.624Z,27.10
2023-03-16T13:49:53.445Z,27.10
2023-03-16T13:52:29.327Z,27.20
2023-03-16T13:55:01.044Z,27.20
2023-03-16T13:57:38.273Z,27.30
2023-03-16T14:00:20.482Z,27.30
2023-03-16T14:02:55.324Z,27.40
2023-03-16T14:05:33.231Z,27.40
2023-03-16T14:08:02.282Z,27.40
2023-03-16T14:10:36.074Z,27.30
2023-03-16T14:13:34.170Z,27.30
2023-03-16T14:16:12.896Z,27.30
2023-03-16T14:18:46.076Z,27.30
2023-03-16T14:21:20.712Z,27.20
2023-03-16T14:23:55.206Z,27.20
2023-03-16T14:26:25.081Z,27.20
2023-03-16T14:29:06.380Z,27.20
2023-03-16T14:31:38.765Z,27.10
2023-03-16T14:34:22.491Z,27.20
2023-03-16T14:36:51.563Z,27.20
2023-03-16T14:39:22.992Z,27.20
2023-03-16T14:41:53.603Z,27.20
2023-03-16T14:44:32.026Z,27.20
2023-03-16T14:47:02.619Z,27.20
2023-03-16T14:49:34.705Z,27.20
2023-03-16T14:52:07.629Z,27.20
2023-03-16T14:54:36.714Z,27.20
2023-03-16T14:57:07.236Z,27.10
2023-03-16T14:59:37.502Z,27.10
2023-03-16T15:02:17.447Z,27.00
2023-03-16T15:04:48.566Z,27.00
2023-03-16T15:07:26.739Z,26.90
2023-03-16T15:10:01.851Z,26.90
2023-03-16T15:12:30.998Z,26.80
2023-03-16T15:15:16.659Z,26.80
2023-03-16T15:17:46.914Z,26.80
2023-03-16T15:20:18.709Z,26.80
2023-03-16T15:22:49.736Z,26.80
2023-03-16T15:25:37.039Z,26.80
2023-03-16T15:28:15.868Z,26.80
2023-03-16T15:30:48.245Z,26.80
2023-03-16T15:33:18.214Z,26.90
2023-03-16T15:35:50.342Z,26.90
2023-03-16T15:38:24.200Z,26.80
2023-03-16T15:40:54.626Z,26.80
2023-03-16T15:43:27.306Z,26.80
2023-03-16T15:45:59.984Z,26.80
2023-03-16T15:48:29.200Z,26.80
2023-03-16T15:51:01.903Z,26.80
2023-03-16T15:53:37.761Z,26.70
2023-03-16T15:56:10.653Z,26.80
2023-03-16T15:58:45.918Z,26.80
2023-03-16T16:01:25.473Z,26.70
2023-03-16T16:03:56.144Z,26.70
2023-03-16T16:06:25.197Z,26.70
2023-03-16T16:08:54.334Z,26.70
2023-03-16T16:11:27.531Z,26.70
2023-03-16T16:13:59.432Z,26.60
2023-03-16T16:16:33.219Z,26.60
2023-03-16T16:19:02.392Z,26.60
2023-03-16T16:21:31.640Z,26.50
2023-03-16T16:24:02.276Z,26.50
2023-03-16T16:26:55.159Z,26.50
2023-03-16T16:29:27.221Z,26.50
2023-03-16T16:31:57.553Z,26.40
2023-03-16T16:34:28.047Z,26.40
2023-03-16T16:36:58.525Z,26.40
2023-03-16T16:39:28.141Z,26.40
2023-03-16T16:41:58.105Z,26.40
2023-03-16T16:44:34.031Z,26.30
2023-03-16T16:47:16.962Z,26.30
2023-03-16T16:49:46.563Z,26.30
2023-03-16T16:52:18.479Z,26.30
2023-03-16T16:54:47.745Z,26.20
2023-03-16T16:57:20.887Z,26.20
2023-03-16T16:59:50.982Z,26.10
2023-03-16T17:02:32.135Z,26.10
2023-03-16T17:05:01.455Z,26.10
2023-03-16T17:07:30.884Z,26.10
2023-03-16T17:10:00.090Z,26.10
2023-03-16T17:12:29.645Z,26.00
2023-03-16T17:14:58.911Z,26.10
2023-03-16T17:17:29.252Z,26.10
2023-03-16T17:19:58.324Z,26.00
2023-03-16T17:22:30.388Z,26.00
2023-03-16T17:25:00.474Z,26.00
2023-03-16T17:27:33.049Z,26.00
2023-03-16T17:30:03.118Z,26.00
2023-03-16T17:32:33.896Z,26.00
2023-03-16T17:35:03.086Z,25.90
2023-03-16T17:37:32.052Z,25.90
2023-03-16T17:40:01.581Z,25.80
2023-03-16T17:42:30.461Z,25.80
2023-03-16T17:45:00.149Z,25.70
2023-03-16T17:47:38.498Z,25.70
2023-03-16T17:50:24.480Z,25.60
2023-03-16T17:52:54.248Z,25.50
2023-03-16T17:55:25.032Z,25.40
2023-03-16T17:57:57.064Z,25.40
2023-03-16T18:00:31.834Z,25.30
2023-03-16T18:03:05.633Z,25.30
2023-03-16T18:05:37.652Z,25.10
2023-03-16T18:08:17.464Z,25.10
2023-03-16T18:10:49.621Z,25.00
2023-03-16T18:13:24.216Z,25.00
2023-03-16T18:15:55.859Z,24.90
2023-03-16T18:18:29.130Z,24.90
2023-03-16T18:21:00.574Z,24.80
2023-03-16T18:23:33.570Z,24.80
2023-03-16T18:26:06.824Z,24.70
2023-03-16T18:28:36.540Z,24.70
2023-03-16T18:31:08.030Z,24.70
2023-03-16T18:33:42.460Z,24.70
2023-03-16T18:36:18.818Z,24.70
2023-03-16T18:38:50.661Z,24.70
2023-03-16T18:41:24.772Z,24.70
2023-03-16T18:43:57.636Z,24.70
2023-03-16T18:46:30.384Z,24.60
2023-03-16T18:49:04.090Z,24.60
2023-03-16T18:51:33.347Z,24.60
2023-03-16T18:54:03.547Z,24.60
2023-03-16T18:56:33.035Z,24.60
2023-03-16T18:59:02.440Z,24.50
2023-03-16T19:01:37.939Z,24.50
2023-03-16T19:04:19.838Z,24.50
2023-03-16T19:06:52.056Z,24.50
2023-03-16T19:09:23.383Z,24.50
2023-03-16T19:11:52.857Z,24.50
2023-03-16T19:14:24.602Z,24.50
2023-03-16T19:16:56.265Z,24.40
2023-03-16T19:19:28.002Z,24.40
2023-03-16T19:22:04.548Z,24.40
2023-03-16T19:24:42.573Z,24.40
2023-03-16T19:27:22.487Z,24.40
2023-03-16T19:29:52.709Z,24.40
2023-03-16T19:32:24.667Z,24.40
2023-03-16T19:34:54.904Z,24.40
2023-03-16T19:37:26.740Z,24.40
2023-03-16T19:39:56.110Z,24.40
2023-03-16T19:42:33.696Z,24.50
2023-03-16T19:45:03.934Z,24.40
2023-03-16T19:47:36.680Z,24.50
2023-03-16T19:50:17.584Z,24.50
2023-03-16T19:52:47.618Z,24.50
2023-03-16T19:55:39.449Z,24.50
2023-03-16T19:58:20.996Z,24.50
2023-03-16T20:00:51.132Z,24.60
2023-03-16T20:03:20.741Z,24.60
2023-03-16T20:05:53.746Z,24.60
2023-03-16T20:08:26.298Z,24.60
2023-03-16T20:11:08.720Z,24.60
2023-03-16T20:13:38.534Z,24.60
2023-03-16T20:16:12.609Z,24.70
2023-03-16T20:18:42.337Z,24.70
2023-03-16T20:21:17.729Z,24.70
2023-03-16T20:23:49.907Z,24.70
2023-03-16T20:26:23.330Z,24.70
2023-03-16T20:28:53.422Z,24.70
2023-03-16T20:31:25.751Z,24.70
2023-03-16T20:33:56.240Z,24.70
2023-03-16T20:36:29.174Z,24.60
2023-03-16T20:38:58.459Z,24.60
2023-03-16T20:41:32.364Z,24.60
2023-03-16T20:44:03.233Z,24.60
2023-03-16T20:46:34.453Z,24.60
2023-03-16T20:49:03.820Z,24.60
2023-03-16T20:51:34.042Z,24.60
2023-03-16T20:54:03.175Z,24.60
2023-03-16T20:56:32.389Z,24.70
2023-03-16T20:59:01.641Z,24.70
2023-03-16T21:01:32.162Z,24.70
2023-03-16T21:04:01.408Z,24.70
2023-03-16T21:06:34.493Z,24.70
2023-03-16T21:09:03.658Z,24.70
2023-03-16T21:11:37.968Z,24.70
2023-03-16T21:14:16.616Z,24.70
2023-03-16T21:16:46.152Z,24.70
2023-03-16T21:19:17.692Z,24.70
2023-03-16T21:21:47.954Z,24.60
2023-03-16T21:24:17.477Z,24.60
2023-03-16T21:26:47.569Z,24.60
2023-03-16T21:29:21.975Z,24.50
2023-03-16T21:31:51.868Z,24.50
2023-03-16T21:34:27.482Z,24.40
2023-03-16T21:36:59.348Z,24.30
2023-03-16T21:39:29.352Z,24.30
2023-03-16T21:41:58.160Z,24.30
2023-03-16T21:44:27.293Z,24.20
2023-03-16T21:46:56.276Z,24.20
2023-03-16T21:49:25.596Z,24.10
2023-03-16T21:51:54.619Z,24.00
2023-03-16T21:54:25.082Z,24.00
2023-03-16T21:56:53.924Z,23.90
2023-03-16T21:59:23.912Z,23.90
2023-03-16T22:02:01.542Z,23.90
2023-03-16T22:04:31.720Z,23.80
2023-03-16T22:07:00.547Z,23.70
2023-03-16T22:09:32.915Z,23.70
2023-03-16T22:12:01.680Z,23.70
2023-03-16T22:14:31.044Z,23.60
2023-03-16T22:16:59.894Z,23.60
2023-03-16T22:19:29.415Z,23.60
2023-03-16T22:21:58.615Z,23.60
2023-03-16T22:24:34.870Z,23.50
2023-03-16T22:27:04.370Z,23.50
2023-03-16T22:29:34.514Z,23.40
2023-03-16T22:32:08.700Z,23.40
2023-03-16T22:34:45.220Z,23.40
2023-03-16T22:37:20.310Z,23.40
2023-03-16T22:39:51.614Z,23.40
2023-03-16T22:42:35.862Z,23.30
2023-03-16T22:45:16.942Z,23.30
2023-03-16T22:47:47.802Z,23.30
2023-03-16T22:50:18.679Z,23.20
2023-03-16T22:52:51.236Z,23.20
2023-03-16T22:55:28.206Z,23.10
2023-03-16T22:58:12.300Z,23.10
2023-03-16T23:00:41.638Z,23.10
2023-03-16T23:03:18.975Z,23.10
2023-03-16T23:05:48.351Z,23.00
2023-03-16T23:08:21.178Z,23.00
2023-03-16T23:10:53.561Z,23.00
2023-03-16T23:13:27.097Z,23.00
2023-03-16T23:15:56.948Z,23.00
2023-03-16T23:18:27.618Z,23.00
2023-03-16T23:20:57.303Z,23.00
2023-03-16T23:23:26.131Z,23.00
2023-03-16T23:25:56.734Z,23.00
2023-03-16T23:28:26.178Z,22.90
2023-03-16T23:30:55.537Z,22.90
2023-03-16T23:33:24.324Z,22.90
2023-03-16T23:35:53.408Z,22.90
2023-03-16T23:38:22.408Z,22.90
2023-03-16T23:40:51.482Z,22.90
2023-03-16T23:43:21.711Z,22.90
2023-03-16T23:45:51.249Z,22.90
2023-03-16T23:48:23.656Z,22.90
2023-03-16T23:50:56.350Z,22.90
2023-03-16T23:53:25.620Z,22.90
2023-03-16T23:55:54.700Z,22.90
2023-03-16T23:58:24.954Z,22.90
